sensor_id;sensor_type;location;lat;lon;timestamp;pressure;altitude;pressure_sealevel;temperature;humidity
69842;BME280;57138;51.326;-0.068;2022-11-24T00:01:52;98146.66;;;6.82;91.21
69842;BME280;57138;51.326;-0.068;2022-11-24T00:04:17;98147.50;;;6.82;90.96
69842;BME280;57138;51.326;-0.068;2022-11-24T00:06:43;98158.34;;;6.81;91.07
69842;BME280;57138;51.326;-0.068;2022-11-24T00:09:09;98152.59;;;6.84;91.26
69842;BME280;57138;51.326;-0.068;2022-11-24T00:11:36;98154.63;;;6.82;91.62
69842;BME280;57138;51.326;-0.068;2022-11-24T00:14:03;98167.09;;;6.81;91.10
69842;BME280;57138;51.326;-0.068;2022-11-24T00:16:38;98168.56;;;6.77;91.56
69842;BME280;57138;51.326;-0.068;2022-11-24T00:19:08;98178.16;;;6.78;91.86
69842;BME280;57138;51.326;-0.068;2022-11-24T00:21:34;98161.50;;;6.64;92.11
69842;BME280;57138;51.326;-0.068;2022-11-24T00:24:01;98157.41;;;6.62;91.80
69842;BME280;57138;51.326;-0.068;2022-11-24T00:26:31;98177.38;;;6.71;92.44
69842;BME280;57138;51.326;-0.068;2022-11-24T00:29:01;98184.28;;;6.79;92.31
69842;BME280;57138;51.326;-0.068;2022-11-24T00:31:31;98189.63;;;6.72;91.97
69842;BME280;57138;51.326;-0.068;2022-11-24T00:33:59;98194.53;;;6.75;92.09
69842;BME280;57138;51.326;-0.068;2022-11-24T00:36:27;98204.13;;;6.76;91.97
69842;BME280;57138;51.326;-0.068;2022-11-24T00:38:54;98219.44;;;6.74;91.96
69842;BME280;57138;51.326;-0.068;2022-11-24T00:41:20;98217.41;;;6.70;91.42
69842;BME280;57138;51.326;-0.068;2022-11-24T00:43:46;98219.28;;;6.69;91.34
69842;BME280;57138;51.326;-0.068;2022-11-24T00:46:11;98218.28;;;6.63;91.58
69842;BME280;57138;51.326;-0.068;2022-11-24T00:48:37;98217.47;;;6.63;91.29
69842;BME280;57138;51.326;-0.068;2022-11-24T00:51:08;98219.53;;;6.61;91.17
69842;BME280;57138;51.326;-0.068;2022-11-24T00:53:34;98233.03;;;6.59;91.34
69842;BME280;57138;51.326;-0.068;2022-11-24T00:55:59;98238.31;;;6.59;91.34
69842;BME280;57138;51.326;-0.068;2022-11-24T00:58:25;98242.81;;;6.59;91.91
69842;BME280;57138;51.326;-0.068;2022-11-24T01:00:52;98256.28;;;6.57;92.01
69842;BME280;57138;51.326;-0.068;2022-11-24T01:03:18;98260.19;;;6.55;91.62
69842;BME280;57138;51.326;-0.068;2022-11-24T01:05:44;98264.88;;;6.53;92.37
69842;BME280;57138;51.326;-0.068;2022-11-24T01:08:10;98275.09;;;6.56;91.92
69842;BME280;57138;51.326;-0.068;2022-11-24T01:10:36;98286.13;;;6.53;91.86
69842;BME280;57138;51.326;-0.068;2022-11-24T01:13:02;98291.44;;;6.53;92.29
69842;BME280;57138;51.326;-0.068;2022-11-24T01:15:28;98296.97;;;6.51;91.57
69842;BME280;57138;51.326;-0.068;2022-11-24T01:17:56;98296.78;;;6.46;91.24
69842;BME280;57138;51.326;-0.068;2022-11-24T01:20:22;98296.38;;;6.42;91.90
69842;BME280;57138;51.326;-0.068;2022-11-24T01:22:48;98292.13;;;6.35;91.22
69842;BME280;57138;51.326;-0.068;2022-11-24T01:25:14;98307.84;;;6.36;91.57
69842;BME280;57138;51.326;-0.068;2022-11-24T01:27:39;98307.88;;;6.29;91.80
69842;BME280;57138;51.326;-0.068;2022-11-24T01:30:05;98307.84;;;6.23;91.23
69842;BME280;57138;51.326;-0.068;2022-11-24T01:32:32;98308.69;;;6.17;91.75
69842;BME280;57138;51.326;-0.068;2022-11-24T01:34:59;98311.97;;;6.12;91.53
69842;BME280;57138;51.326;-0.068;2022-11-24T01:37:25;98323.41;;;6.13;91.36
69842;BME280;57138;51.326;-0.068;2022-11-24T01:39:50;98324.41;;;6.11;91.54
69842;BME280;57138;51.326;-0.068;2022-11-24T01:42:15;98346.25;;;6.07;91.40
69842;BME280;57138;51.326;-0.068;2022-11-24T01:44:41;98346.28;;;6.00;91.07
69842;BME280;57138;51.326;-0.068;2022-11-24T01:52:02;98358.28;;;5.89;91.42
69842;BME280;57138;51.326;-0.068;2022-11-24T01:54:32;98368.25;;;5.81;91.03
69842;BME280;57138;51.326;-0.068;2022-11-24T01:57:09;98373.56;;;5.81;91.66
69842;BME280;57138;51.326;-0.068;2022-11-24T01:59:38;98381.31;;;5.75;91.46
69842;BME280;57138;51.326;-0.068;2022-11-24T02:02:03;98380.53;;;5.75;91.37
69842;BME280;57138;51.326;-0.068;2022-11-24T02:04:30;98384.38;;;5.72;91.40
69842;BME280;57138;51.326;-0.068;2022-11-24T02:07:00;98388.44;;;5.68;90.94
69842;BME280;57138;51.326;-0.068;2022-11-24T02:09:36;98389.47;;;5.67;91.74
69842;BME280;57138;51.326;-0.068;2022-11-24T02:12:05;98398.03;;;5.63;91.24
69842;BME280;57138;51.326;-0.068;2022-11-24T02:14:30;98402.50;;;5.62;90.92
69842;BME280;57138;51.326;-0.068;2022-11-24T02:16:58;98401.28;;;5.58;91.19
69842;BME280;57138;51.326;-0.068;2022-11-24T02:21:55;98419.22;;;5.56;91.80
69842;BME280;57138;51.326;-0.068;2022-11-24T02:24:22;98433.50;;;5.55;91.48
69842;BME280;57138;51.326;-0.068;2022-11-24T02:26:49;98432.88;;;5.53;91.52
69842;BME280;57138;51.326;-0.068;2022-11-24T02:29:16;98426.56;;;5.47;91.79
69842;BME280;57138;51.326;-0.068;2022-11-24T02:31:47;98437.56;;;5.51;92.06
69842;BME280;57138;51.326;-0.068;2022-11-24T02:34:14;98441.22;;;5.50;92.27
69842;BME280;57138;51.326;-0.068;2022-11-24T02:36:39;98440.41;;;5.49;92.34
69842;BME280;57138;51.326;-0.068;2022-11-24T02:39:14;98450.59;;;5.46;92.13
69842;BME280;57138;51.326;-0.068;2022-11-24T02:41:51;98462.22;;;5.45;92.27
69842;BME280;57138;51.326;-0.068;2022-11-24T02:44:19;98466.91;;;5.43;92.57
69842;BME280;57138;51.326;-0.068;2022-11-24T02:46:46;98476.88;;;5.40;92.37
69842;BME280;57138;51.326;-0.068;2022-11-24T02:49:11;98467.31;;;5.39;92.52
69842;BME280;57138;51.326;-0.068;2022-11-24T02:51:36;98475.44;;;5.38;92.38
69842;BME280;57138;51.326;-0.068;2022-11-24T02:54:02;98486.84;;;5.38;92.39
69842;BME280;57138;51.326;-0.068;2022-11-24T02:56:28;98490.09;;;5.34;92.40
69842;BME280;57138;51.326;-0.068;2022-11-24T02:58:53;98482.34;;;5.32;91.98
69842;BME280;57138;51.326;-0.068;2022-11-24T03:01:18;98488.91;;;5.36;91.83
69842;BME280;57138;51.326;-0.068;2022-11-24T03:03:44;98492.56;;;5.35;92.51
69842;BME280;57138;51.326;-0.068;2022-11-24T03:06:10;98497.84;;;5.35;92.15
69842;BME280;57138;51.326;-0.068;2022-11-24T03:08:35;98505.59;;;5.37;92.27
69842;BME280;57138;51.326;-0.068;2022-11-24T03:11:02;98497.00;;;5.28;91.75
69842;BME280;57138;51.326;-0.068;2022-11-24T03:13:27;98504.34;;;5.33;92.09
69842;BME280;57138;51.326;-0.068;2022-11-24T03:15:53;98507.59;;;5.28;92.14
69842;BME280;57138;51.326;-0.068;2022-11-24T03:18:18;98514.16;;;5.32;91.90
69842;BME280;57138;51.326;-0.068;2022-11-24T03:20:44;98516.00;;;5.32;92.73
69842;BME280;57138;51.326;-0.068;2022-11-24T03:23:09;98506.75;;;5.21;92.08
69842;BME280;57138;51.326;-0.068;2022-11-24T03:25:34;98522.50;;;5.29;92.30
69842;BME280;57138;51.326;-0.068;2022-11-24T03:28:00;98518.63;;;5.25;92.30
69842;BME280;57138;51.326;-0.068;2022-11-24T03:30:26;98521.25;;;5.25;91.83
69842;BME280;57138;51.326;-0.068;2022-11-24T03:32:51;98521.00;;;5.20;92.33
69842;BME280;57138;51.326;-0.068;2022-11-24T03:35:20;98509.50;;;5.06;92.20
69842;BME280;57138;51.326;-0.068;2022-11-24T03:37:46;98537.69;;;5.14;92.09
69842;BME280;57138;51.326;-0.068;2022-11-24T03:40:12;98548.94;;;5.16;92.22
69842;BME280;57138;51.326;-0.068;2022-11-24T03:42:38;98544.63;;;5.15;92.47
69842;BME280;57138;51.326;-0.068;2022-11-24T03:45:05;98545.03;;;5.12;92.75
69842;BME280;57138;51.326;-0.068;2022-11-24T03:47:30;98558.88;;;5.14;92.47
69842;BME280;57138;51.326;-0.068;2022-11-24T03:49:56;98552.97;;;5.12;92.92
69842;BME280;57138;51.326;-0.068;2022-11-24T03:52:21;98539.69;;;5.05;92.94
69842;BME280;57138;51.326;-0.068;2022-11-24T03:54:46;98559.25;;;5.11;92.44
69842;BME280;57138;51.326;-0.068;2022-11-24T03:57:12;98559.25;;;5.11;92.48
69842;BME280;57138;51.326;-0.068;2022-11-24T03:59:37;98566.59;;;5.09;92.54
69842;BME280;57138;51.326;-0.068;2022-11-24T04:02:03;98556.81;;;5.09;92.79
69842;BME280;57138;51.326;-0.068;2022-11-24T04:04:29;98572.31;;;5.12;92.85
69842;BME280;57138;51.326;-0.068;2022-11-24T04:06:54;98582.91;;;5.12;92.75
69842;BME280;57138;51.326;-0.068;2022-11-24T04:09:19;98571.50;;;5.12;92.62
69842;BME280;57138;51.326;-0.068;2022-11-24T04:11:45;98581.91;;;5.13;92.56
69842;BME280;57138;51.326;-0.068;2022-11-24T04:14:29;98597.63;;;5.15;92.88
69842;BME280;57138;51.326;-0.068;2022-11-24T04:16:54;98599.66;;;5.13;92.30
69842;BME280;57138;51.326;-0.068;2022-11-24T04:19:19;98602.31;;;5.13;92.88
69842;BME280;57138;51.326;-0.068;2022-11-24T04:21:45;98599.59;;;5.06;92.48
69842;BME280;57138;51.326;-0.068;2022-11-24T04:24:10;98605.94;;;5.12;92.91
69842;BME280;57138;51.326;-0.068;2022-11-24T04:26:36;98612.25;;;5.11;92.48
69842;BME280;57138;51.326;-0.068;2022-11-24T04:29:01;98600.03;;;5.10;92.50
69842;BME280;57138;51.326;-0.068;2022-11-24T04:31:26;98609.00;;;5.09;92.66
69842;BME280;57138;51.326;-0.068;2022-11-24T04:33:52;98605.53;;;5.08;92.22
69842;BME280;57138;51.326;-0.068;2022-11-24T04:36:17;98605.03;;;4.98;92.49
69842;BME280;57138;51.326;-0.068;2022-11-24T04:38:42;98614.66;;;5.06;92.35
69842;BME280;57138;51.326;-0.068;2022-11-24T04:41:08;98608.50;;;4.98;92.82
69842;BME280;57138;51.326;-0.068;2022-11-24T04:43:34;98614.63;;;4.99;92.91
69842;BME280;57138;51.326;-0.068;2022-11-24T04:45:59;98617.09;;;5.00;92.94
69842;BME280;57138;51.326;-0.068;2022-11-24T04:48:25;98609.75;;;5.02;92.64
69842;BME280;57138;51.326;-0.068;2022-11-24T04:50:50;98615.88;;;5.03;92.68
69842;BME280;57138;51.326;-0.068;2022-11-24T04:53:16;98610.34;;;4.98;92.57
69842;BME280;57138;51.326;-0.068;2022-11-24T04:55:41;98617.91;;;5.01;93.04
69842;BME280;57138;51.326;-0.068;2022-11-24T04:58:10;98621.34;;;5.01;92.96
69842;BME280;57138;51.326;-0.068;2022-11-24T05:00:36;98630.94;;;5.02;92.48
69842;BME280;57138;51.326;-0.068;2022-11-24T05:03:03;98639.91;;;5.01;92.72
69842;BME280;57138;51.326;-0.068;2022-11-24T05:05:28;98631.31;;;4.99;92.87
69842;BME280;57138;51.326;-0.068;2022-11-24T05:07:54;98639.47;;;4.98;92.89
69842;BME280;57138;51.326;-0.068;2022-11-24T05:10:19;98644.94;;;4.96;92.55
69842;BME280;57138;51.326;-0.068;2022-11-24T05:13:06;98652.91;;;4.96;92.78
69842;BME280;57138;51.326;-0.068;2022-11-24T05:15:33;98651.25;;;4.95;93.14
69842;BME280;57138;51.326;-0.068;2022-11-24T05:18:03;98659.66;;;4.99;92.98
69842;BME280;57138;51.326;-0.068;2022-11-24T05:20:28;98655.56;;;4.96;92.85
69842;BME280;57138;51.326;-0.068;2022-11-24T05:22:54;98658.44;;;5.01;93.14
69842;BME280;57138;51.326;-0.068;2022-11-24T05:25:19;98655.56;;;4.96;92.68
69842;BME280;57138;51.326;-0.068;2022-11-24T05:27:45;98666.38;;;5.01;92.40
69842;BME280;57138;51.326;-0.068;2022-11-24T05:30:10;98662.72;;;5.02;92.94
69842;BME280;57138;51.326;-0.068;2022-11-24T05:32:36;98671.31;;;5.04;93.08
69842;BME280;57138;51.326;-0.068;2022-11-24T05:35:01;98674.78;;;5.05;92.70
69842;BME280;57138;51.326;-0.068;2022-11-24T05:37:28;98679.06;;;5.06;93.05
69842;BME280;57138;51.326;-0.068;2022-11-24T05:39:54;98687.19;;;5.04;92.50
69842;BME280;57138;51.326;-0.068;2022-11-24T05:42:19;98682.09;;;5.03;93.25
69842;BME280;57138;51.326;-0.068;2022-11-24T05:45:04;98686.38;;;5.04;92.82
69842;BME280;57138;51.326;-0.068;2022-11-24T05:47:30;98689.22;;;5.02;93.14
69842;BME280;57138;51.326;-0.068;2022-11-24T05:49:55;98706.38;;;5.07;92.65
69842;BME280;57138;51.326;-0.068;2022-11-24T05:52:21;98705.34;;;5.08;93.08
69842;BME280;57138;51.326;-0.068;2022-11-24T05:54:46;98707.00;;;5.09;92.85
69842;BME280;57138;51.326;-0.068;2022-11-24T05:57:12;98702.09;;;5.06;92.68
69842;BME280;57138;51.326;-0.068;2022-11-24T05:59:37;98707.00;;;5.09;92.95
69842;BME280;57138;51.326;-0.068;2022-11-24T06:02:03;98714.56;;;5.12;92.73
69842;BME280;57138;51.326;-0.068;2022-11-24T06:04:28;98712.94;;;5.11;92.68
69842;BME280;57138;51.326;-0.068;2022-11-24T06:06:54;98713.31;;;5.08;93.18
69842;BME280;57138;51.326;-0.068;2022-11-24T06:09:19;98721.91;;;5.10;92.92
69842;BME280;57138;51.326;-0.068;2022-11-24T06:11:46;98726.81;;;5.13;92.97
69842;BME280;57138;51.326;-0.068;2022-11-24T06:14:12;98725.56;;;5.09;93.23
69842;BME280;57138;51.326;-0.068;2022-11-24T06:16:37;98727.19;;;5.10;92.91
69842;BME280;57138;51.326;-0.068;2022-11-24T06:19:02;98725.75;;;5.07;93.18
69842;BME280;57138;51.326;-0.068;2022-11-24T06:21:28;98737.81;;;5.10;93.15
69842;BME280;57138;51.326;-0.068;2022-11-24T06:23:54;98734.78;;;5.13;92.92
69842;BME280;57138;51.326;-0.068;2022-11-24T06:26:19;98728.63;;;5.12;92.97
69842;BME280;57138;51.326;-0.068;2022-11-24T06:28:44;98736.19;;;5.15;93.25
69842;BME280;57138;51.326;-0.068;2022-11-24T06:31:10;98733.75;;;5.14;92.63
69842;BME280;57138;51.326;-0.068;2022-11-24T06:33:36;98735.00;;;5.18;92.93
69842;BME280;57138;51.326;-0.068;2022-11-24T06:36:05;98724.59;;;5.16;92.72
69842;BME280;57138;51.326;-0.068;2022-11-24T06:38:31;98732.97;;;5.20;93.05
69842;BME280;57138;51.326;-0.068;2022-11-24T06:41:10;98731.38;;;5.19;92.91
69842;BME280;57138;51.326;-0.068;2022-11-24T06:43:36;98725.03;;;5.20;92.90
69842;BME280;57138;51.326;-0.068;2022-11-24T06:46:02;98724.03;;;5.21;92.89
69842;BME280;57138;51.326;-0.068;2022-11-24T06:48:28;98732.97;;;5.20;92.53
69842;BME280;57138;51.326;-0.068;2022-11-24T06:51:00;98727.69;;;5.20;92.92
69842;BME280;57138;51.326;-0.068;2022-11-24T06:53:32;98723.84;;;5.22;92.87
69842;BME280;57138;51.326;-0.068;2022-11-24T06:56:01;98724.47;;;5.25;92.78
69842;BME280;57138;51.326;-0.068;2022-11-24T06:58:27;98722.00;;;5.23;92.97
69842;BME280;57138;51.326;-0.068;2022-11-24T07:00:53;98724.09;;;5.28;92.29
69842;BME280;57138;51.326;-0.068;2022-11-24T07:03:19;98725.94;;;5.27;92.90
69842;BME280;57138;51.326;-0.068;2022-11-24T07:05:45;98728.56;;;5.27;92.64
69842;BME280;57138;51.326;-0.068;2022-11-24T07:08:10;98723.66;;;5.24;92.54
69842;BME280;57138;51.326;-0.068;2022-11-24T07:10:36;98733.06;;;5.27;92.54
69842;BME280;57138;51.326;-0.068;2022-11-24T07:13:01;98720.63;;;5.27;92.69
69842;BME280;57138;51.326;-0.068;2022-11-24T07:15:28;98729.81;;;5.31;93.00
69842;BME280;57138;51.326;-0.068;2022-11-24T07:17:54;98733.50;;;5.30;92.75
69842;BME280;57138;51.326;-0.068;2022-11-24T07:20:20;98743.72;;;5.33;92.71
69842;BME280;57138;51.326;-0.068;2022-11-24T07:22:45;98738.03;;;5.36;93.05
69842;BME280;57138;51.326;-0.068;2022-11-24T07:25:10;98740.28;;;5.39;92.70
69842;BME280;57138;51.326;-0.068;2022-11-24T07:27:38;98758.47;;;5.43;93.10
69842;BME280;57138;51.326;-0.068;2022-11-24T07:30:04;98747.88;;;5.43;93.01
69842;BME280;57138;51.326;-0.068;2022-11-24T07:32:29;98748.50;;;5.45;93.03
69842;BME280;57138;51.326;-0.068;2022-11-24T07:34:55;98751.13;;;5.45;92.97
69842;BME280;57138;51.326;-0.068;2022-11-24T07:37:20;98765.91;;;5.54;93.35
69842;BME280;57138;51.326;-0.068;2022-11-24T07:39:45;98758.94;;;5.53;93.11
69842;BME280;57138;51.326;-0.068;2022-11-24T07:42:11;98764.31;;;5.60;92.88
69842;BME280;57138;51.326;-0.068;2022-11-24T07:44:36;98767.59;;;5.62;92.82
69842;BME280;57138;51.326;-0.068;2022-11-24T07:47:02;98768.59;;;5.61;93.28
69842;BME280;57138;51.326;-0.068;2022-11-24T07:49:28;98772.50;;;5.65;93.29
69842;BME280;57138;51.326;-0.068;2022-11-24T07:51:53;98776.25;;;5.70;93.29
69842;BME280;57138;51.326;-0.068;2022-11-24T07:54:18;98773.44;;;5.79;93.04
69842;BME280;57138;51.326;-0.068;2022-11-24T07:56:47;98767.94;;;5.80;93.27
69842;BME280;57138;51.326;-0.068;2022-11-24T07:59:12;98763.66;;;5.86;93.35
69842;BME280;57138;51.326;-0.068;2022-11-24T08:01:38;98776.34;;;5.90;92.94
69842;BME280;57138;51.326;-0.068;2022-11-24T08:04:03;98777.19;;;5.91;92.50
69842;BME280;57138;51.326;-0.068;2022-11-24T08:06:30;98783.94;;;5.93;92.47
69842;BME280;57138;51.326;-0.068;2022-11-24T08:08:56;98790.34;;;5.99;93.13
69842;BME280;57138;51.326;-0.068;2022-11-24T08:11:22;98790.34;;;5.99;93.03
69842;BME280;57138;51.326;-0.068;2022-11-24T08:13:47;98783.84;;;6.02;93.07
69842;BME280;57138;51.326;-0.068;2022-11-24T08:16:15;98793.22;;;6.04;93.48
69842;BME280;57138;51.326;-0.068;2022-11-24T08:18:41;98796.50;;;6.06;93.23
69842;BME280;57138;51.326;-0.068;2022-11-24T08:21:10;98785.91;;;6.06;92.92
69842;BME280;57138;51.326;-0.068;2022-11-24T08:23:36;98792.25;;;6.12;93.58
69842;BME280;57138;51.326;-0.068;2022-11-24T08:26:04;98788.81;;;6.18;93.29
69842;BME280;57138;51.326;-0.068;2022-11-24T08:28:31;98793.16;;;6.26;92.93
69842;BME280;57138;51.326;-0.068;2022-11-24T08:31:05;98791.75;;;6.30;93.59
69842;BME280;57138;51.326;-0.068;2022-11-24T08:33:31;98787.66;;;6.34;93.40
69842;BME280;57138;51.326;-0.068;2022-11-24T08:36:05;98777.69;;;6.36;93.60
69842;BME280;57138;51.326;-0.068;2022-11-24T08:38:31;98778.09;;;6.40;93.29
69842;BME280;57138;51.326;-0.068;2022-11-24T08:41:01;98777.91;;;6.41;93.73
69842;BME280;57138;51.326;-0.068;2022-11-24T08:43:27;98772.38;;;6.36;93.51
69842;BME280;57138;51.326;-0.068;2022-11-24T08:45:52;98766.69;;;6.39;93.49
69842;BME280;57138;51.326;-0.068;2022-11-24T08:48:18;98786.75;;;6.48;93.40
69842;BME280;57138;51.326;-0.068;2022-11-24T08:50:43;98778.78;;;6.48;92.83
69842;BME280;57138;51.326;-0.068;2022-11-24T08:53:08;98789.00;;;6.52;93.79
69842;BME280;57138;51.326;-0.068;2022-11-24T08:55:34;98778.00;;;6.55;93.91
69842;BME280;57138;51.326;-0.068;2022-11-24T08:57:59;98780.47;;;6.63;93.87
69842;BME280;57138;51.326;-0.068;2022-11-24T09:00:25;98778.03;;;6.68;93.80
69842;BME280;57138;51.326;-0.068;2022-11-24T09:02:55;98780.53;;;6.76;94.36
69842;BME280;57138;51.326;-0.068;2022-11-24T09:05:20;98767.66;;;6.80;93.89
69842;BME280;57138;51.326;-0.068;2022-11-24T09:07:46;98766.66;;;6.88;94.01
69842;BME280;57138;51.326;-0.068;2022-11-24T09:10:11;98762.97;;;6.89;93.22
69842;BME280;57138;51.326;-0.068;2022-11-24T09:12:38;98772.78;;;6.95;93.13
69842;BME280;57138;51.326;-0.068;2022-11-24T09:15:03;98766.47;;;6.96;93.41
69842;BME280;57138;51.326;-0.068;2022-11-24T09:17:29;98765.06;;;7.00;93.29
69842;BME280;57138;51.326;-0.068;2022-11-24T09:19:54;98779.78;;;7.09;93.21
69842;BME280;57138;51.326;-0.068;2022-11-24T09:22:20;98778.34;;;7.13;93.17
69842;BME280;57138;51.326;-0.068;2022-11-24T09:24:45;98765.47;;;7.10;93.27
69842;BME280;57138;51.326;-0.068;2022-11-24T09:27:12;98761.41;;;7.14;93.08
69842;BME280;57138;51.326;-0.068;2022-11-24T09:29:37;98762.22;;;7.22;93.00
69842;BME280;57138;51.326;-0.068;2022-11-24T09:32:03;98769.59;;;7.26;93.07
69842;BME280;57138;51.326;-0.068;2022-11-24T09:34:28;98771.66;;;7.31;92.88
69842;BME280;57138;51.326;-0.068;2022-11-24T09:36:54;98776.13;;;7.30;92.66
69842;BME280;57138;51.326;-0.068;2022-11-24T09:39:19;98773.91;;;7.34;93.07
69842;BME280;57138;51.326;-0.068;2022-11-24T09:49:55;98750.78;;;7.54;94.42
69842;BME280;57138;51.326;-0.068;2022-11-24T09:52:53;98757.31;;;7.59;94.58
69842;BME280;57138;51.326;-0.068;2022-11-24T09:58:08;98762.47;;;7.67;94.67
69842;BME280;57138;51.326;-0.068;2022-11-24T10:00:35;98767.75;;;7.73;95.36
69842;BME280;57138;51.326;-0.068;2022-11-24T10:03:02;98756.50;;;7.78;96.32
69842;BME280;57138;51.326;-0.068;2022-11-24T10:05:29;98760.19;;;7.90;96.32
69842;BME280;57138;51.326;-0.068;2022-11-24T10:08:26;98769.59;;;8.00;97.05
69842;BME280;57138;51.326;-0.068;2022-11-24T10:10:58;98769.34;;;8.08;97.34
69842;BME280;57138;51.326;-0.068;2022-11-24T10:27:20;98755.13;;;8.41;98.12
69842;BME280;57138;51.326;-0.068;2022-11-24T10:29:51;98751.28;;;8.43;98.18
69842;BME280;57138;51.326;-0.068;2022-11-24T10:32:22;98753.31;;;8.48;98.38
69842;BME280;57138;51.326;-0.068;2022-11-24T10:35:19;98726.88;;;8.40;98.29
69842;BME280;57138;51.326;-0.068;2022-11-24T10:38:28;98724.41;;;8.45;98.76
69842;BME280;57138;51.326;-0.068;2022-11-24T10:41:21;98750.94;;;8.72;98.62
69842;BME280;57138;51.326;-0.068;2022-11-24T10:43:52;98718.97;;;8.72;98.51
69842;BME280;57138;51.326;-0.068;2022-11-24T10:46:24;98725.47;;;8.82;98.16
69842;BME280;57138;51.326;-0.068;2022-11-24T10:48:59;98731.09;;;8.99;97.96
69842;BME280;57138;51.326;-0.068;2022-11-24T10:51:31;98726.06;;;9.16;97.32
69842;BME280;57138;51.326;-0.068;2022-11-24T10:54:04;98710.44;;;9.20;96.77
69842;BME280;57138;51.326;-0.068;2022-11-24T10:59:29;98701.88;;;9.18;95.96
69842;BME280;57138;51.326;-0.068;2022-11-24T11:04:34;98707.41;;;9.42;95.25
69842;BME280;57138;51.326;-0.068;2022-11-24T11:07:30;98689.75;;;9.41;95.60
69842;BME280;57138;51.326;-0.068;2022-11-24T11:12:34;98677.56;;;9.51;94.69
69842;BME280;57138;51.326;-0.068;2022-11-24T11:15:24;98668.09;;;9.56;94.12
69842;BME280;57138;51.326;-0.068;2022-11-24T11:17:59;98652.75;;;9.51;93.98
69842;BME280;57138;51.326;-0.068;2022-11-24T11:20:32;98671.91;;;9.66;94.13
69842;BME280;57138;51.326;-0.068;2022-11-24T11:23:22;98659.56;;;9.65;94.09
69842;BME280;57138;51.326;-0.068;2022-11-24T11:26:36;98664.34;;;9.82;93.99
69842;BME280;57138;51.326;-0.068;2022-11-24T11:31:37;98670.84;;;9.86;93.28
69842;BME280;57138;51.326;-0.068;2022-11-24T11:36:46;98658.13;;;9.88;93.67
69842;BME280;57138;51.326;-0.068;2022-11-24T11:39:35;98643.13;;;9.87;94.16
69842;BME280;57138;51.326;-0.068;2022-11-24T11:45:13;98646.03;;;10.04;93.83
69842;BME280;57138;51.326;-0.068;2022-11-24T11:51:14;98631.56;;;10.12;93.28
69842;BME280;57138;51.326;-0.068;2022-11-24T11:54:05;98622.47;;;10.13;92.95
69842;BME280;57138;51.326;-0.068;2022-11-24T11:56:41;98615.78;;;10.22;92.47
69842;BME280;57138;51.326;-0.068;2022-11-24T12:02:35;98623.13;;;10.26;90.59
69842;BME280;57138;51.326;-0.068;2022-11-24T12:08:56;98599.25;;;10.32;89.23
69842;BME280;57138;51.326;-0.068;2022-11-24T12:17:33;98582.34;;;10.38;89.88
69842;BME280;57138;51.326;-0.068;2022-11-24T12:25:37;98561.78;;;10.38;89.17
69842;BME280;57138;51.326;-0.068;2022-11-24T12:28:29;98575.25;;;10.43;89.42
69842;BME280;57138;51.326;-0.068;2022-11-24T12:39:34;98553.69;;;10.57;89.05
69842;BME280;57138;51.326;-0.068;2022-11-24T12:45:04;98556.25;;;10.64;88.34
69842;BME280;57138;51.326;-0.068;2022-11-24T12:50:17;98530.94;;;10.66;87.62
69842;BME280;57138;51.326;-0.068;2022-11-24T12:52:53;98538.03;;;10.72;88.65
69842;BME280;57138;51.326;-0.068;2022-11-24T12:55:25;98523.59;;;10.73;88.14
69842;BME280;57138;51.326;-0.068;2022-11-24T13:01:21;98522.09;;;10.77;86.52
69842;BME280;57138;51.326;-0.068;2022-11-24T13:09:21;98513.03;;;10.78;86.53
69842;BME280;57138;51.326;-0.068;2022-11-24T13:12:04;98502.69;;;10.82;86.02
69842;BME280;57138;51.326;-0.068;2022-11-24T13:14:36;98504.66;;;10.87;85.70
69842;BME280;57138;51.326;-0.068;2022-11-24T13:17:36;98498.16;;;10.83;85.48
69842;BME280;57138;51.326;-0.068;2022-11-24T13:22:33;98453.06;;;10.74;84.89
69842;BME280;57138;51.326;-0.068;2022-11-24T13:25:13;98483.19;;;10.82;85.27
69842;BME280;57138;51.326;-0.068;2022-11-24T13:27:43;98479.31;;;10.77;84.76
69842;BME280;57138;51.326;-0.068;2022-11-24T13:33:17;98474.31;;;10.81;85.72
69842;BME280;57138;51.326;-0.068;2022-11-24T13:38:51;98469.66;;;10.76;85.88
69842;BME280;57138;51.326;-0.068;2022-11-24T13:45:04;98463.28;;;10.77;86.21
69842;BME280;57138;51.326;-0.068;2022-11-24T13:51:18;98444.47;;;10.72;85.55
69842;BME280;57138;51.326;-0.068;2022-11-24T13:54:01;98430.28;;;10.60;86.98
69842;BME280;57138;51.326;-0.068;2022-11-24T13:56:28;98425.75;;;10.60;86.90
69842;BME280;57138;51.326;-0.068;2022-11-24T13:58:56;98447.38;;;10.71;87.23
69842;BME280;57138;51.326;-0.068;2022-11-24T14:01:26;98448.41;;;10.70;86.26
69842;BME280;57138;51.326;-0.068;2022-11-24T14:06:43;98419.94;;;10.64;85.93
69842;BME280;57138;51.326;-0.068;2022-11-24T14:09:39;98431.91;;;10.61;86.31
69842;BME280;57138;51.326;-0.068;2022-11-24T14:12:19;98431.44;;;10.64;86.41
69842;BME280;57138;51.326;-0.068;2022-11-24T14:14:48;98444.34;;;10.67;86.13
69842;BME280;57138;51.326;-0.068;2022-11-24T14:17:28;98441.09;;;10.65;86.65
69842;BME280;57138;51.326;-0.068;2022-11-24T14:19:55;98421.69;;;10.58;86.69
69842;BME280;57138;51.326;-0.068;2022-11-24T14:22:23;98448.31;;;10.65;86.35
69842;BME280;57138;51.326;-0.068;2022-11-24T14:24:58;98427.72;;;10.65;86.56
69842;BME280;57138;51.326;-0.068;2022-11-24T14:27:33;98420.19;;;10.62;86.58
69842;BME280;57138;51.326;-0.068;2022-11-24T14:30:01;98425.16;;;10.70;86.59
69842;BME280;57138;51.326;-0.068;2022-11-24T14:32:28;98422.72;;;10.69;86.90
69842;BME280;57138;51.326;-0.068;2022-11-24T14:34:54;98395.78;;;10.58;86.65
69842;BME280;57138;51.326;-0.068;2022-11-24T14:37:21;98427.59;;;10.72;86.83
69842;BME280;57138;51.326;-0.068;2022-11-24T14:39:50;98414.00;;;10.73;86.94
69842;BME280;57138;51.326;-0.068;2022-11-24T14:42:24;98395.28;;;10.73;87.29
69842;BME280;57138;51.326;-0.068;2022-11-24T14:45:01;98381.34;;;10.71;86.86
69842;BME280;57138;51.326;-0.068;2022-11-24T14:47:43;98384.97;;;10.65;87.55
69842;BME280;57138;51.326;-0.068;2022-11-24T14:50:20;98363.56;;;10.77;87.45
69842;BME280;57138;51.326;-0.068;2022-11-24T14:55:31;98346.72;;;10.76;87.82
69842;BME280;57138;51.326;-0.068;2022-11-24T14:58:29;98317.59;;;10.63;87.29
69842;BME280;57138;51.326;-0.068;2022-11-24T15:07:27;98312.34;;;10.68;87.06
69842;BME280;57138;51.326;-0.068;2022-11-24T15:09:54;98336.94;;;10.82;86.95